59  °F
Temperature
57  °F
  Dewpoint
   Humidity
Temp | Dewpoint | Humidity
13  km/h
Wind Speed
8  mph
Wind Speed
7  kts
Wind Speed
30°
North North
East

Wind Speed
Misty
Conditions
Pressure 1024.2 (hPa) - 30.25 (in)
Visibility 2.5 (mi) - 4.0 (km)

Current Conditions
KMYR
Location Myrtle Beach International 6km (3.2mi)
Metar :KMYR 221456Z 03007KT 2 1/2SM BR OVC005 15/14 A3025 RMK AO2 RAE43 SLP242 P0000 60000 T01500144 51013
Fri 22nd February 09:56 am

Airport
  Metar Aviation API Data Provided by https://www.checkwx.com/ CSS/SVG/PHP scripts by weather34.com © 2015-2019